Time;durP1;ratioP1;P1;durP2;ratioP2;P2;SDS_P1;SDS_P2;PMS_P1;PMS_P2;Temp;Humidity;BMP_temperature;BMP_pressure;BME280_temperature;BME280_humidity;BME280_pressure;Samples;Min_cycle;Max_cycle;Signal;HPM_P1;HPM_P2
2022/01/22 00:00:49;;;;;;;5.23;3.20;;;-0.10;99.80;;;;;;2089466;28;20270;-70
2022/01/22 00:01:50;;;;;;;6.72;3.22;;;-0.10;99.80;;;;;;2089799;28;20730;-70
2022/01/22 00:02:51;;;;;;;6.55;3.00;;;0.00;99.70;;;;;;2089429;28;20535;-70
2022/01/22 00:03:52;;;;;;;6.97;2.80;;;0.00;99.70;;;;;;2089577;28;20181;-70
2022/01/22 00:04:53;;;;;;;6.23;3.10;;;-0.10;99.80;;;;;;2097774;28;20672;-70
2022/01/22 00:05:54;;;;;;;6.00;3.07;;;-0.10;99.90;;;;;;2097734;28;20176;-71
2022/01/22 00:06:55;;;;;;;8.57;3.00;;;-0.10;99.90;;;;;;2097862;28;20207;-70
2022/01/22 00:07:56;;;;;;;9.43;3.83;;;-0.10;99.90;;;;;;2098424;28;20594;-70
2022/01/22 00:08:57;;;;;;;4.80;3.13;;;-0.10;99.90;;;;;;2098164;28;20190;-70
2022/01/22 00:10:06;;;;;;;10.60;3.60;;;-0.10;99.90;;;;;;2097700;28;20660;-71
2022/01/22 00:11:07;;;;;;;5.95;3.42;;;-0.10;99.90;;;;;;2090524;28;20260;-70
2022/01/22 00:12:11;;;;;;;5.35;3.42;;;-0.10;99.90;;;;;;2097614;28;20188;-70
2022/01/22 00:14:25;;;;;;;10.27;3.20;;;0.00;99.90;;;;;;2098556;28;20260;-70
2022/01/22 00:15:27;;;;;;;4.55;2.30;;;0.00;99.70;;;;;;2097723;28;20266;-70
2022/01/22 00:16:27;;;;;;;5.32;2.70;;;-0.10;99.70;;;;;;2090354;28;20259;-71
2022/01/22 00:17:28;;;;;;;7.90;2.50;;;-0.30;99.90;;;;;;2097584;28;20172;-71
2022/01/22 00:18:29;;;;;;;9.30;2.87;;;-0.20;99.90;;;;;;2098351;28;20655;-71
2022/01/22 00:19:29;;;;;;;4.60;2.50;;;-0.30;99.90;;;;;;2097288;28;20204;-70
2022/01/22 00:20:30;;;;;;;4.83;2.87;;;-0.20;99.90;;;;;;2089328;28;20688;-69
2022/01/22 00:21:31;;;;;;;9.30;2.67;;;-0.20;99.90;;;;;;2097523;28;20225;-70
2022/01/22 00:22:34;;;;;;;11.10;3.37;;;-0.10;99.90;;;;;;2097836;28;20217;-71
2022/01/22 00:23:38;;;;;;;7.15;4.00;;;0.00;99.90;;;;;;2097779;28;20273;-70
2022/01/22 00:24:40;;;;;;;5.72;2.70;;;0.10;99.90;;;;;;2097641;28;20182;-70
2022/01/22 00:25:40;;;;;;;9.32;3.30;;;0.20;99.00;;;;;;2097551;28;20535;-70
2022/01/22 00:26:42;;;;;;;8.83;3.60;;;0.10;98.60;;;;;;2089475;28;20234;-71
2022/01/22 00:27:46;;;;;;;8.15;3.40;;;0.10;98.90;;;;;;2089487;28;20664;-71
2022/01/22 00:28:46;;;;;;;7.35;3.80;;;0.00;99.20;;;;;;2097683;28;20583;-70
2022/01/22 00:29:47;;;;;;;6.23;2.80;;;0.00;99.30;;;;;;2097850;28;20286;-70
2022/01/22 00:30:48;;;;;;;6.07;3.00;;;0.00;99.80;;;;;;2098408;28;20190;-71
2022/01/22 00:31:49;;;;;;;4.45;2.53;;;0.00;99.30;;;;;;2097705;28;20316;-69
2022/01/22 00:32:51;;;;;;;5.10;2.73;;;0.00;99.80;;;;;;2097554;28;20190;-70
2022/01/22 00:33:51;;;;;;;3.53;2.17;;;0.00;99.60;;;;;;2098190;28;20186;-70
2022/01/22 00:34:52;;;;;;;6.00;2.77;;;0.10;98.40;;;;;;2098253;28;20560;-69
2022/01/22 00:35:53;;;;;;;4.50;2.73;;;0.10;98.40;;;;;;2097707;28;20218;-69
2022/01/22 00:36:53;;;;;;;5.50;2.67;;;0.10;98.10;;;;;;2097651;28;20563;-70
2022/01/22 00:37:54;;;;;;;5.50;2.53;;;0.00;98.40;;;;;;2098044;28;20171;-70
2022/01/22 00:38:55;;;;;;;2.87;2.20;;;0.00;98.80;;;;;;2097999;28;20183;-69
2022/01/22 00:39:56;;;;;;;6.63;2.50;;;0.00;98.80;;;;;;2097382;28;20257;-70
2022/01/22 00:40:56;;;;;;;4.30;1.98;;;0.00;98.70;;;;;;2097518;28;20665;-70
2022/01/22 00:41:57;;;;;;;4.90;2.27;;;0.00;99.10;;;;;;2098183;28;20224;-70
2022/01/22 00:42:58;;;;;;;8.30;2.53;;;0.00;99.60;;;;;;2098089;28;20278;-70
2022/01/22 00:43:59;;;;;;;4.20;2.30;;;0.00;99.40;;;;;;2097523;28;20227;-70
2022/01/22 00:45:00;;;;;;;5.90;2.40;;;0.00;98.90;;;;;;2089237;28;20272;-69
2022/01/22 00:46:00;;;;;;;4.68;2.13;;;0.10;98.90;;;;;;2089142;28;20175;-70
2022/01/22 00:47:02;;;;;;;5.03;2.47;;;0.00;99.30;;;;;;2097565;28;20254;-69
2022/01/22 00:48:03;;;;;;;4.53;2.03;;;0.00;99.60;;;;;;2097304;28;20179;-69
2022/01/22 00:49:04;;;;;;;6.28;2.72;;;0.10;99.10;;;;;;2097240;28;20215;-69
2022/01/22 00:50:11;;;;;;;4.03;1.87;;;0.00;99.00;;;;;;2097278;28;20233;-69
2022/01/22 00:51:12;;;;;;;3.67;2.10;;;0.00;99.10;;;;;;2090043;28;20168;-69
2022/01/22 00:52:13;;;;;;;8.67;2.33;;;0.10;99.30;;;;;;2089271;28;20180;-69
2022/01/22 00:53:14;;;;;;;2.63;1.80;;;0.10;98.50;;;;;;2097445;28;20183;-69
2022/01/22 00:54:15;;;;;;;4.37;1.87;;;0.10;98.60;;;;;;2097564;28;20254;-69
2022/01/22 00:55:16;;;;;;;6.03;2.37;;;0.10;98.70;;;;;;2089263;28;20302;-69
2022/01/22 00:56:17;;;;;;;4.78;2.10;;;0.00;99.10;;;;;;2097535;28;20226;-69
2022/01/22 00:57:18;;;;;;;3.22;1.40;;;0.10;98.50;;;;;;2097526;28;20179;-69
2022/01/22 00:58:19;;;;;;;4.73;1.80;;;0.00;98.50;;;;;;2097528;28;20683;-69
2022/01/22 00:59:19;;;;;;;2.80;1.80;;;0.00;98.30;;;;;;2097083;28;20176;-69
2022/01/22 01:00:20;;;;;;;6.20;2.17;;;0.00;99.00;;;;;;2097351;28;20179;-69
2022/01/22 01:01:21;;;;;;;2.43;1.50;;;0.00;98.60;;;;;;2097256;28;20233;-69
2022/01/22 01:02:21;;;;;;;5.00;1.97;;;0.00;98.60;;;;;;2097623;28;20834;-69
2022/01/22 01:03:22;;;;;;;4.40;1.80;;;0.00;99.00;;;;;;2098179;28;20172;-69
2022/01/22 01:04:23;;;;;;;2.50;1.70;;;0.00;98.80;;;;;;2097322;28;20176;-69
2022/01/22 01:05:23;;;;;;;2.27;1.53;;;0.00;99.10;;;;;;2097498;28;20526;-69
2022/01/22 01:06:24;;;;;;;2.40;1.43;;;-0.10;99.20;;;;;;2097249;28;20564;-69
2022/01/22 01:07:25;;;;;;;3.00;1.90;;;0.00;99.00;;;;;;2097366;28;20175;-69
2022/01/22 01:08:27;;;;;;;3.07;1.67;;;0.00;98.60;;;;;;2097973;28;20240;-70
2022/01/22 01:09:28;;;;;;;3.92;1.60;;;0.00;98.50;;;;;;2097229;28;20211;-70
2022/01/22 01:10:29;;;;;;;3.63;1.63;;;0.00;98.60;;;;;;2097297;28;20213;-70
2022/01/22 01:11:32;;;;;;;5.22;1.42;;;0.00;98.70;;;;;;2088945;28;20184;-71
2022/01/22 01:12:35;;;;;;;4.63;2.00;;;0.00;99.00;;;;;;2097569;28;20621;-70
2022/01/22 01:13:42;;;;;;;10.30;1.85;;;0.10;98.40;;;;;;2097315;28;20180;-70
2022/01/22 01:14:55;;;;;;;3.30;1.75;;;0.00;98.70;;;;;;2089896;28;20551;-71
2022/01/22 01:16:15;;;;;;;2.55;1.77;;;-0.10;99.00;;;;;;2097127;28;20213;-70
2022/01/22 01:17:56;;;;;;;5.07;1.73;;;0.00;99.00;;;;;;2097340;28;20262;-70
2022/01/22 01:33:16;;;;;;;3.72;1.40;;;0.00;97.80;;;;;;2097978;28;20164;-70
2022/01/22 01:34:20;;;;;;;3.90;1.40;;;-0.10;98.80;;;;;;2097867;28;20218;-70
2022/01/22 01:35:22;;;;;;;4.68;1.40;;;-0.10;98.90;;;;;;2105697;28;20712;-70
2022/01/22 01:36:22;;;;;;;5.70;1.80;;;-0.10;98.90;;;;;;2105137;28;20242;-70
2022/01/22 01:37:23;;;;;;;3.60;1.23;;;-0.10;98.80;;;;;;2097902;28;20187;-70
2022/01/22 01:38:24;;;;;;;2.42;1.55;;;0.00;99.00;;;;;;2097229;28;20185;-70
2022/01/22 01:39:30;;;;;;;3.67;1.70;;;0.00;98.90;;;;;;2097054;28;20205;-70
2022/01/22 01:40:33;;;;;;;3.65;1.38;;;-0.10;99.30;;;;;;2097222;28;20190;-70
2022/01/22 01:41:47;;;;;;;6.25;1.70;;;-0.10;99.20;;;;;;2097269;28;20187;-70
2022/01/22 01:43:04;;;;;;;3.40;1.50;;;0.00;99.00;;;;;;2097342;28;20190;-70
2022/01/22 01:44:05;;;;;;;2.40;1.60;;;-0.10;99.10;;;;;;2101502;28;20213;-71
2022/01/22 01:45:07;;;;;;;4.13;1.40;;;0.00;99.20;;;;;;2103407;28;20228;-70
2022/01/22 01:46:08;;;;;;;4.93;2.20;;;0.00;99.50;;;;;;2105590;28;20179;-70
2022/01/22 01:47:12;;;;;;;3.70;1.40;;;-0.10;98.90;;;;;;2097072;28;20776;-70
2022/01/22 01:48:18;;;;;;;2.28;1.70;;;-0.10;99.40;;;;;;2089319;28;20176;-70
2022/01/22 01:49:19;;;;;;;2.00;1.80;;;-0.10;99.30;;;;;;2096998;28;20204;-73
2022/01/22 01:50:20;;;;;;;2.97;1.95;;;0.00;99.20;;;;;;2097123;28;20270;-70
2022/01/22 01:51:24;;;;;;;2.83;1.50;;;-0.10;99.40;;;;;;2097096;28;20556;-70
2022/01/22 01:52:35;;;;;;;3.72;1.65;;;-0.10;99.30;;;;;;2097628;28;20171;-70
2022/01/22 01:55:51;;;;;;;4.13;1.30;;;0.00;99.10;;;;;;2097953;28;20241;-71
2022/01/22 01:58:15;;;;;;;2.35;1.63;;;-0.10;98.50;;;;;;2092532;28;20168;-71
2022/01/22 01:59:16;;;;;;;4.20;1.90;;;-0.10;99.10;;;;;;2091336;28;20192;-70
2022/01/22 02:00:24;;;;;;;4.53;1.23;;;-0.10;99.40;;;;;;2089020;28;20302;-70
2022/01/22 02:01:24;;;;;;;5.95;1.90;;;-0.10;99.70;;;;;;2089837;28;20187;-68
2022/01/22 02:02:28;;;;;;;3.10;1.27;;;-0.10;99.50;;;;;;2097302;28;20193;-70
2022/01/22 02:03:29;;;;;;;5.68;2.10;;;-0.10;99.80;;;;;;2097006;28;20598;-71
2022/01/22 02:04:30;;;;;;;4.37;1.33;;;-0.20;99.80;;;;;;2089127;28;20175;-71
2022/01/22 02:05:32;;;;;;;5.27;1.50;;;-0.10;99.80;;;;;;2097101;28;20725;-70
2022/01/22 02:06:33;;;;;;;3.80;1.65;;;-0.10;99.60;;;;;;2097126;28;20252;-70
2022/01/22 02:07:37;;;;;;;5.13;1.27;;;-0.10;99.60;;;;;;2097180;28;20175;-70
2022/01/22 02:08:39;;;;;;;3.35;1.45;;;0.00;99.00;;;;;;2097116;28;20187;-70
2022/01/22 02:09:41;;;;;;;4.93;2.08;;;-0.10;98.90;;;;;;2080990;28;20287;-70
2022/01/22 02:10:48;;;;;;;2.00;1.35;;;-0.10;99.00;;;;;;2089044;28;20185;-70
2022/01/22 02:11:58;;;;;;;2.40;1.58;;;-0.10;99.60;;;;;;2097656;28;20168;-70
2022/01/22 02:13:41;;;;;;;3.42;1.50;;;-0.20;99.90;;;;;;2097146;28;20156;-70
2022/01/22 02:23:47;;;;;;;7.10;1.65;;;-0.10;99.70;;;;;;2097241;28;20175;-70
2022/01/22 02:24:45;;;;;;;2.58;1.40;;;-0.10;99.90;;;;;;2093555;28;20191;-71
2022/01/22 02:25:45;;;;;;;2.17;1.43;;;-0.20;99.90;;;;;;2097337;28;20258;-70
2022/01/22 02:26:49;;;;;;;1.80;1.43;;;-0.30;99.90;;;;;;2097820;28;20176;-70
2022/01/22 02:27:49;;;;;;;2.72;1.70;;;-0.30;99.90;;;;;;2088832;28;20212;-70
2022/01/22 02:28:52;;;;;;;2.53;1.80;;;-0.40;99.90;;;;;;2088614;28;20679;-71
2022/01/22 02:29:52;;;;;;;4.28;1.80;;;-0.50;99.90;;;;;;2096763;28;20269;-71
2022/01/22 02:31:00;;;;;;;3.40;1.70;;;-0.40;99.90;;;;;;2080456;28;20692;-70
2022/01/22 02:32:56;;;;;;;7.55;1.73;;;-0.30;99.90;;;;;;2089944;28;20657;-70
2022/01/22 02:33:41;;;;;;;3.33;1.92;;;-0.30;99.90;;;;;;2089234;28;20196;-70
2022/01/22 02:35:00;;;;;;;2.42;1.50;;;-0.30;99.90;;;;;;2097764;28;20159;-71
2022/01/22 02:36:11;;;;;;;3.53;1.80;;;-0.30;99.90;;;;;;2097982;28;20179;-70
2022/01/22 02:37:16;;;;;;;7.90;2.03;;;-0.30;99.90;;;;;;2092523;28;20201;-70
2022/01/22 02:38:24;;;;;;;3.42;1.42;;;-0.30;99.90;;;;;;2098752;28;20190;-71
2022/01/22 02:39:57;;;;;;;3.80;2.05;;;-0.30;99.90;;;;;;2098228;28;20162;-70
2022/01/22 02:40:58;;;;;;;5.25;2.15;;;-0.40;99.90;;;;;;2098665;28;20207;-70
2022/01/22 02:41:59;;;;;;;3.20;1.43;;;-0.20;99.90;;;;;;2099089;28;20567;-70
2022/01/22 02:43:00;;;;;;;12.90;2.13;;;-0.30;99.90;;;;;;2098281;28;20279;-70
2022/01/22 02:44:01;;;;;;;3.83;1.90;;;-0.20;99.90;;;;;;2090301;28;20734;-70
2022/01/22 02:45:10;;;;;;;4.22;1.80;;;-0.10;99.90;;;;;;2098341;28;20172;-70
2022/01/22 02:46:13;;;;;;;7.18;3.03;;;-0.20;99.90;;;;;;2099181;28;20160;-70
2022/01/22 02:47:15;;;;;;;3.03;2.00;;;-0.20;99.90;;;;;;2099058;28;20193;-70
2022/01/22 02:48:16;;;;;;;4.38;2.10;;;-0.10;99.90;;;;;;2098531;28;20533;-69
2022/01/22 02:49:17;;;;;;;4.23;1.93;;;-0.20;99.90;;;;;;2098391;28;20274;-70
2022/01/22 02:50:20;;;;;;;3.33;1.60;;;-0.10;99.90;;;;;;2099117;28;20186;-70
2022/01/22 02:51:25;;;;;;;5.28;2.10;;;0.00;99.90;;;;;;2098301;28;20659;-70
2022/01/22 02:52:26;;;;;;;7.68;1.70;;;0.00;99.90;;;;;;2091015;28;20207;-70
2022/01/22 02:53:27;;;;;;;2.70;1.87;;;0.10;99.90;;;;;;2098325;28;20172;-70
2022/01/22 02:54:28;;;;;;;4.68;2.10;;;0.10;99.90;;;;;;2099137;28;20193;-70
2022/01/22 02:55:29;;;;;;;5.27;2.33;;;0.00;99.90;;;;;;2098938;28;20262;-70
2022/01/22 02:56:30;;;;;;;4.85;2.08;;;0.10;99.90;;;;;;2098392;28;20175;-70
2022/01/22 02:57:32;;;;;;;4.73;2.00;;;0.10;99.90;;;;;;2098405;28;20275;-70
2022/01/22 02:58:33;;;;;;;4.15;1.98;;;0.20;99.90;;;;;;2098437;28;20181;-71
2022/01/22 02:59:34;;;;;;;4.20;1.75;;;0.20;99.90;;;;;;2098006;28;20203;-70
2022/01/22 03:00:35;;;;;;;4.13;2.30;;;0.20;99.90;;;;;;2098372;28;20179;-71
2022/01/22 03:01:36;;;;;;;4.60;2.10;;;0.20;99.90;;;;;;2090011;28;20211;-70
2022/01/22 03:02:38;;;;;;;6.30;1.90;;;0.10;99.90;;;;;;2089927;28;20184;-70
2022/01/22 03:03:39;;;;;;;4.32;2.25;;;0.10;99.90;;;;;;2098364;28;20254;-70
2022/01/22 03:04:40;;;;;;;4.07;2.03;;;0.20;99.90;;;;;;2098970;28;20180;-70
2022/01/22 03:05:41;;;;;;;4.10;2.00;;;0.20;99.90;;;;;;2089966;28;20175;-70
2022/01/22 03:06:41;;;;;;;3.40;1.73;;;0.10;99.90;;;;;;2089724;28;20218;-71
2022/01/22 03:07:45;;;;;;;4.13;2.37;;;0.00;99.90;;;;;;2098752;28;20168;-70
2022/01/22 03:08:47;;;;;;;5.28;2.20;;;0.00;99.90;;;;;;2098256;28;20191;-70
2022/01/22 03:09:50;;;;;;;4.20;2.08;;;0.00;99.90;;;;;;2098072;28;20214;-70
2022/01/22 03:10:53;;;;;;;5.70;2.10;;;0.00;99.90;;;;;;2098994;28;20285;-71
2022/01/22 03:13:57;;;;;;;4.07;2.20;;;0.00;99.90;;;;;;2099143;28;20167;-70
2022/01/22 03:18:53;;;;;;;4.68;2.03;;;0.10;99.90;;;;;;2098221;28;20182;-70
2022/01/22 03:20:33;;;;;;;5.45;2.25;;;0.10;99.90;;;;;;2098609;28;20203;-70
2022/01/22 03:21:37;;;;;;;5.65;2.90;;;0.00;99.90;;;;;;2098071;28;20179;-70
2022/01/22 03:27:37;;;;;;;8.30;3.55;;;0.30;99.90;;;;;;2098157;28;20176;-70
2022/01/22 03:28:51;;;;;;;5.97;3.20;;;0.20;99.90;;;;;;2098229;28;20176;-71
2022/01/22 03:29:52;;;;;;;6.72;3.22;;;0.10;99.90;;;;;;2098648;28;20199;-70
2022/01/22 03:30:52;;;;;;;6.55;3.40;;;0.00;99.90;;;;;;2098686;28;20191;-70
2022/01/22 03:31:53;;;;;;;10.43;3.97;;;0.00;99.90;;;;;;2098623;28;20176;-70
2022/01/22 03:32:56;;;;;;;8.63;3.60;;;-0.10;99.90;;;;;;2098635;28;20596;-70
2022/01/22 03:33:57;;;;;;;6.85;4.32;;;0.00;99.90;;;;;;2098764;28;20639;-70
2022/01/22 03:35:08;;;;;;;5.47;3.08;;;0.10;99.90;;;;;;2098518;28;20203;-70
2022/01/22 03:36:11;;;;;;;9.40;3.67;;;0.00;99.90;;;;;;2098586;28;20239;-70
2022/01/22 03:37:11;;;;;;;5.55;3.70;;;0.10;99.90;;;;;;2097912;28;20183;-70
2022/01/22 03:38:12;;;;;;;7.50;2.40;;;0.20;99.90;;;;;;2089740;28;20176;-70
2022/01/22 03:39:13;;;;;;;8.20;3.17;;;0.20;99.90;;;;;;2097592;28;20182;-70
2022/01/22 03:40:14;;;;;;;8.17;4.07;;;0.30;99.90;;;;;;2097935;28;20990;-70
2022/01/22 03:41:15;;;;;;;4.63;3.53;;;0.50;99.90;;;;;;2098388;28;20207;-70
2022/01/22 03:42:16;;;;;;;4.78;3.20;;;0.40;99.90;;;;;;2098116;28;20664;-70
2022/01/22 03:43:18;;;;;;;6.40;3.13;;;0.40;99.90;;;;;;2089735;28;20211;-70
2022/01/22 03:44:19;;;;;;;4.65;2.85;;;0.40;99.90;;;;;;2097969;28;20179;-70
2022/01/22 03:45:23;;;;;;;11.88;3.30;;;0.40;99.90;;;;;;2099666;28;20189;-71
2022/01/22 03:46:24;;;;;;;4.72;2.72;;;0.40;99.90;;;;;;2097777;28;20752;-70
2022/01/22 03:47:25;;;;;;;4.85;3.70;;;0.50;99.90;;;;;;2090000;28;20234;-70
2022/01/22 03:48:25;;;;;;;8.77;3.93;;;0.50;99.90;;;;;;2089816;28;20185;-71
2022/01/22 03:49:26;;;;;;;6.67;3.87;;;0.40;99.90;;;;;;2089239;28;20873;-70
2022/01/22 03:50:26;;;;;;;6.77;3.57;;;0.40;99.90;;;;;;2098085;28;20168;-71
2022/01/22 03:51:27;;;;;;;5.83;3.20;;;0.30;99.90;;;;;;2098135;28;20176;-71
2022/01/22 03:52:28;;;;;;;6.03;2.87;;;0.30;99.90;;;;;;2098083;28;20230;-71
2022/01/22 03:53:29;;;;;;;5.43;3.10;;;0.40;99.90;;;;;;2089571;28;20184;-71
2022/01/22 03:54:29;;;;;;;5.80;3.20;;;0.50;99.90;;;;;;2081751;28;20173;-71
2022/01/22 03:55:46;;;;;;;5.13;3.37;;;0.50;99.90;;;;;;2098018;28;20179;-70
2022/01/22 03:56:47;;;;;;;8.77;2.83;;;0.40;99.90;;;;;;2098129;28;20574;-70
2022/01/22 03:57:48;;;;;;;9.05;3.22;;;0.40;99.90;;;;;;2098637;28;20183;-70
2022/01/22 03:58:49;;;;;;;6.77;2.97;;;0.40;99.90;;;;;;2098595;28;20683;-71
2022/01/22 03:59:52;;;;;;;8.17;2.90;;;0.40;99.90;;;;;;2097784;28;20199;-70
2022/01/22 04:01:08;;;;;;;5.85;3.25;;;0.40;99.90;;;;;;2089878;28;20203;-70
2022/01/22 04:03:32;;;;;;;6.57;3.05;;;0.10;99.90;;;;;;2098480;28;20175;-70
2022/01/22 04:05:36;;;;;;;6.93;3.67;;;0.20;99.90;;;;;;2098615;28;20182;-70
2022/01/22 04:08:44;;;;;;;6.22;3.67;;;0.40;99.90;;;;;;2097853;28;20198;-70
2022/01/22 04:09:46;;;;;;;6.85;3.40;;;0.40;99.90;;;;;;2097691;28;20279;-70
2022/01/22 04:10:48;;;;;;;11.25;3.92;;;0.50;99.90;;;;;;2098799;28;20640;-71
2022/01/22 04:11:51;;;;;;;7.25;3.30;;;0.30;99.90;;;;;;2098495;28;20218;-70
2022/01/22 04:13:03;;;;;;;7.50;3.63;;;0.30;99.90;;;;;;2098363;28;20644;-71
2022/01/22 04:14:05;;;;;;;6.05;3.15;;;0.30;99.90;;;;;;2097928;28;20644;-71
2022/01/22 04:15:09;;;;;;;5.97;3.63;;;0.40;99.90;;;;;;2091349;28;20172;-70
2022/01/22 04:16:13;;;;;;;8.50;3.97;;;0.40;99.90;;;;;;2090479;28;20180;-71
2022/01/22 04:24:51;;;;;;;5.90;3.55;;;0.40;99.90;;;;;;2098093;28;20164;-70
2022/01/22 04:26:04;;;;;;;9.55;4.18;;;0.40;99.90;;;;;;2098412;28;20203;-71
2022/01/22 04:27:11;;;;;;;8.30;3.78;;;0.30;99.90;;;;;;2098353;28;20187;-71
2022/01/22 04:28:12;;;;;;;11.23;4.43;;;0.40;99.90;;;;;;2098333;28;20821;-71
2022/01/22 04:29:13;;;;;;;10.05;5.40;;;0.40;99.90;;;;;;2097333;28;20168;-70
2022/01/22 04:30:14;;;;;;;12.73;5.07;;;0.20;99.90;;;;;;2097763;28;20573;-70
2022/01/22 04:31:15;;;;;;;12.83;4.47;;;0.30;99.90;;;;;;2098330;28;20176;-70
2022/01/22 04:32:15;;;;;;;8.97;4.83;;;0.20;99.90;;;;;;2098396;28;20191;-70
2022/01/22 04:33:16;;;;;;;12.33;5.27;;;0.20;99.90;;;;;;2097395;28;20194;-70
2022/01/22 04:34:17;;;;;;;10.27;4.73;;;0.20;99.90;;;;;;2089320;28;20683;-71
2022/01/22 04:35:18;;;;;;;14.00;5.67;;;0.40;99.90;;;;;;2097513;28;20180;-70
2022/01/22 04:36:19;;;;;;;11.15;4.47;;;0.40;99.90;;;;;;2097690;28;20432;-70
2022/01/22 04:37:24;;;;;;;13.87;5.97;;;0.40;99.90;;;;;;2089316;28;20181;-70
2022/01/22 04:38:24;;;;;;;9.77;4.75;;;0.50;99.90;;;;;;2097432;28;20180;-72
2022/01/22 04:39:26;;;;;;;18.17;6.33;;;0.50;99.90;;;;;;2097838;28;20260;-70
2022/01/22 04:40:27;;;;;;;13.32;6.20;;;0.20;99.90;;;;;;2097570;28;20176;-70
2022/01/22 04:41:28;;;;;;;15.70;5.97;;;0.20;99.90;;;;;;2089094;28;20212;-70
2022/01/22 04:42:32;;;;;;;12.50;5.23;;;0.30;99.90;;;;;;2089347;28;20211;-70
2022/01/22 04:43:36;;;;;;;32.97;6.72;;;0.30;99.90;;;;;;2089579;28;20175;-69
2022/01/22 04:44:44;;;;;;;11.60;6.03;;;0.20;99.90;;;;;;2081702;28;20220;-70
2022/01/22 04:45:53;;;;;;;12.05;5.70;;;0.20;99.90;;;;;;2083257;28;20548;-70
2022/01/22 04:47:03;;;;;;;14.32;5.90;;;0.20;99.90;;;;;;2091620;28;20175;-69
2022/01/22 04:49:18;;;;;;;28.65;8.02;;;0.20;99.90;;;;;;2097290;28;20171;-70
2022/01/22 04:55:32;;;;;;;58.13;10.68;;;-0.10;99.90;;;;;;2093739;28;20647;-69
2022/01/22 04:56:33;;;;;;;24.75;8.43;;;-0.10;99.90;;;;;;2091615;28;20200;-71
2022/01/22 04:57:38;;;;;;;96.07;13.70;;;-0.10;99.90;;;;;;2097626;28;20600;-70
2022/01/22 04:58:39;;;;;;;77.03;12.05;;;0.00;99.90;;;;;;2096570;28;20164;-70
2022/01/22 04:59:40;;;;;;;78.40;15.10;;;0.00;99.90;;;;;;2097122;28;20616;-70
2022/01/22 05:00:43;;;;;;;48.87;10.93;;;0.00;99.90;;;;;;2097958;28;20172;-69
2022/01/22 05:01:44;;;;;;;40.03;10.43;;;0.10;99.90;;;;;;2098075;28;20588;-69
2022/01/22 05:02:45;;;;;;;45.67;12.05;;;0.10;99.90;;;;;;2097395;28;20179;-68
2022/01/22 05:03:46;;;;;;;104.63;15.03;;;0.10;99.90;;;;;;2089222;28;20184;-69
2022/01/22 05:04:46;;;;;;;85.43;12.43;;;0.20;99.90;;;;;;2097343;28;20195;-70
2022/01/22 05:05:47;;;;;;;51.63;12.20;;;0.20;99.90;;;;;;2098012;28;20182;-70
2022/01/22 05:06:48;;;;;;;36.57;10.97;;;0.20;99.90;;;;;;2097997;28;20183;-70
2022/01/22 05:07:48;;;;;;;68.47;12.93;;;0.10;99.90;;;;;;2098082;28;20180;-71
2022/01/22 05:08:49;;;;;;;71.13;13.53;;;0.10;99.90;;;;;;2097941;28;20259;-70
2022/01/22 05:09:50;;;;;;;49.37;13.17;;;0.10;99.90;;;;;;2097826;28;20194;-71
2022/01/22 05:10:50;;;;;;;52.47;12.40;;;0.10;99.90;;;;;;2097779;28;20175;-70
2022/01/22 05:11:51;;;;;;;40.50;10.40;;;0.10;99.90;;;;;;2098011;28;20187;-69
2022/01/22 05:12:53;;;;;;;61.53;11.97;;;0.00;99.90;;;;;;2089285;28;20191;-70
2022/01/22 05:13:54;;;;;;;56.05;12.93;;;0.00;99.90;;;;;;2073048;28;20185;-70
2022/01/22 05:14:54;;;;;;;68.37;12.70;;;0.00;99.90;;;;;;2080969;28;20217;-70
2022/01/22 05:15:55;;;;;;;45.13;11.37;;;-0.10;99.90;;;;;;2089017;28;20278;-70
2022/01/22 05:16:58;;;;;;;30.13;9.60;;;0.00;99.90;;;;;;2096927;28;20183;-70
2022/01/22 05:17:59;;;;;;;38.08;11.02;;;0.00;99.90;;;;;;2089433;28;20173;-70
2022/01/22 05:19:02;;;;;;;31.52;10.60;;;0.00;99.90;;;;;;2097081;28;20183;-70
2022/01/22 05:20:11;;;;;;;72.20;12.93;;;0.10;99.90;;;;;;2088908;28;20239;-70
2022/01/22 05:21:15;;;;;;;34.65;9.68;;;0.20;99.90;;;;;;2083147;28;20239;-70
2022/01/22 05:22:35;;;;;;;73.22;15.50;;;0.30;99.90;;;;;;2090109;28;20746;-70
2022/01/22 05:23:38;;;;;;;141.05;18.23;;;0.30;99.90;;;;;;2092038;28;20621;-70
2022/01/22 05:24:43;;;;;;;76.20;13.68;;;0.30;99.90;;;;;;2091775;28;20668;-70
2022/01/22 05:25:50;;;;;;;72.18;14.48;;;0.30;99.90;;;;;;2089520;28;20214;-70
2022/01/22 05:33:18;;;;;;;68.55;11.95;;;0.30;99.90;;;;;;2069857;28;20193;-70
2022/01/22 05:37:02;;;;;;;25.80;9.07;;;0.10;99.90;;;;;;2094137;28;20567;-70
2022/01/22 05:38:04;;;;;;;43.70;12.48;;;0.20;99.90;;;;;;2097231;28;20184;-70
2022/01/22 05:39:11;;;;;;;64.88;13.43;;;0.20;99.90;;;;;;2089276;28;20179;-70
2022/01/22 05:40:12;;;;;;;24.70;10.00;;;0.20;99.90;;;;;;2097293;28;20202;-71
2022/01/22 05:41:12;;;;;;;30.37;9.50;;;0.20;99.90;;;;;;2097673;28;20231;-70
2022/01/22 05:42:13;;;;;;;31.00;10.00;;;0.20;99.90;;;;;;2097650;28;20642;-70
2022/01/22 05:43:14;;;;;;;23.57;9.63;;;0.30;99.90;;;;;;2097736;28;20628;-71
2022/01/22 05:44:14;;;;;;;33.47;10.30;;;0.40;99.90;;;;;;2097400;28;20555;-71
2022/01/22 05:45:15;;;;;;;39.10;10.70;;;0.40;99.90;;;;;;2097028;28;20269;-70
2022/01/22 05:46:16;;;;;;;67.13;10.93;;;0.30;99.90;;;;;;2096987;28;20176;-71
2022/01/22 05:47:26;;;;;;;82.60;15.67;;;0.30;99.90;;;;;;2097104;28;20237;-70
2022/01/22 05:48:26;;;;;;;44.45;12.32;;;0.30;99.90;;;;;;2096931;28;20263;-71
2022/01/22 05:49:29;;;;;;;48.57;13.37;;;0.30;99.90;;;;;;2088391;28;20180;-70
2022/01/22 05:50:47;;;;;;;50.35;13.75;;;0.30;99.90;;;;;;2088904;28;20168;-70
2022/01/22 05:51:49;;;;;;;55.08;13.18;;;0.40;99.90;;;;;;2097291;28;20188;-70
2022/01/22 05:52:57;;;;;;;55.28;12.65;;;0.40;99.90;;;;;;2096943;28;20183;-70
2022/01/22 05:55:42;;;;;;;36.00;9.73;;;0.30;99.90;;;;;;2097681;28;20164;-70
2022/01/22 05:59:39;;;;;;;61.15;13.23;;;0.10;99.90;;;;;;2096757;28;20639;-70
2022/01/22 06:00:40;;;;;;;38.88;11.38;;;0.10;99.90;;;;;;2093666;28;20293;-70
2022/01/22 06:01:43;;;;;;;41.30;11.93;;;0.20;99.90;;;;;;2097091;28;20180;-70
2022/01/22 06:02:44;;;;;;;75.60;14.55;;;0.20;99.90;;;;;;2097657;28;20172;-70
2022/01/22 06:03:46;;;;;;;66.83;13.20;;;0.20;99.90;;;;;;2097665;28;20262;-70
2022/01/22 06:04:46;;;;;;;68.95;13.32;;;0.20;99.90;;;;;;2097743;28;20682;-70
2022/01/22 06:05:47;;;;;;;36.00;11.50;;;0.30;99.90;;;;;;2097217;28;20183;-70
2022/01/22 06:06:48;;;;;;;115.50;17.47;;;0.40;99.90;;;;;;2097027;28;20722;-70
2022/01/22 06:07:48;;;;;;;84.90;17.30;;;0.40;99.90;;;;;;2096981;28;20180;-71
2022/01/22 06:08:53;;;;;;;75.80;16.83;;;0.30;99.90;;;;;;2088433;28;20196;-70
2022/01/22 06:11:08;;;;;;;51.17;12.82;;;0.20;99.90;;;;;;2099270;28;20179;-70
2022/01/22 06:13:16;;;;;;;99.05;19.50;;;0.30;99.90;;;;;;2098555;28;20195;-70
2022/01/22 06:14:17;;;;;;;93.93;16.17;;;0.30;99.90;;;;;;2099176;28;20623;-70
2022/01/22 06:15:18;;;;;;;100.25;16.70;;;0.30;99.90;;;;;;2098424;28;20201;-70
2022/01/22 06:16:22;;;;;;;72.43;16.20;;;0.30;99.90;;;;;;2098562;28;20179;-70
2022/01/22 06:17:23;;;;;;;89.57;17.75;;;0.40;99.90;;;;;;2098451;28;20453;-70
2022/01/22 06:18:23;;;;;;;173.63;26.03;;;0.30;99.90;;;;;;2098472;28;20621;-70
2022/01/22 06:19:24;;;;;;;86.83;18.23;;;0.30;99.90;;;;;;2098762;28;20257;-70
2022/01/22 06:20:25;;;;;;;55.67;13.10;;;0.10;99.90;;;;;;2098443;28;20183;-70
2022/01/22 06:21:25;;;;;;;78.17;17.97;;;0.00;99.90;;;;;;2098338;28;20527;-70
2022/01/22 06:22:26;;;;;;;49.37;12.77;;;0.10;99.90;;;;;;2098428;28;20791;-70
2022/01/22 06:23:27;;;;;;;89.07;15.57;;;0.20;99.90;;;;;;2098460;28;20571;-70
2022/01/22 06:24:28;;;;;;;79.97;18.97;;;0.10;99.90;;;;;;2098405;28;20192;-70
2022/01/22 06:25:29;;;;;;;54.87;14.63;;;0.10;99.90;;;;;;2090008;28;20534;-70
2022/01/22 06:26:30;;;;;;;77.97;16.67;;;0.10;99.90;;;;;;2098409;28;20164;-70
2022/01/22 06:27:31;;;;;;;42.40;12.33;;;0.20;99.90;;;;;;2098988;28;20259;-70
2022/01/22 06:28:33;;;;;;;35.30;11.52;;;0.30;99.90;;;;;;2098429;28;20285;-70
2022/01/22 06:29:33;;;;;;;65.05;12.93;;;0.40;99.90;;;;;;2090130;28;20206;-70
2022/01/22 06:30:34;;;;;;;67.57;16.27;;;0.40;99.90;;;;;;2090040;28;20173;-71
2022/01/22 06:31:35;;;;;;;37.90;11.80;;;0.50;99.90;;;;;;2090049;28;20172;-70
2022/01/22 06:32:36;;;;;;;46.93;13.37;;;0.50;99.90;;;;;;2090045;28;20183;-70
2022/01/22 06:33:36;;;;;;;38.10;11.63;;;0.40;99.90;;;;;;2098369;28;20206;-70
2022/01/22 06:34:37;;;;;;;43.27;12.07;;;0.30;99.90;;;;;;2098879;28;20220;-71
2022/01/22 06:35:38;;;;;;;55.80;14.17;;;0.30;99.90;;;;;;2098957;28;20222;-70
2022/01/22 06:36:38;;;;;;;27.13;11.40;;;0.30;99.90;;;;;;2098833;28;20313;-70
2022/01/22 06:37:39;;;;;;;43.13;13.60;;;0.40;99.90;;;;;;2098937;28;20172;-70
2022/01/22 06:38:40;;;;;;;37.75;13.48;;;0.40;99.90;;;;;;2098184;28;20175;-70
2022/01/22 06:41:44;;;;;;;34.93;12.63;;;0.30;99.90;;;;;;2098038;28;20198;-70
2022/01/22 06:42:02;;;;;;;43.33;12.15;;;0.40;99.90;;;;;;2098751;28;20231;-70
2022/01/22 06:42:33;;;;;;;27.38;10.07;;;0.30;99.90;;;;;;2080695;28;20188;-70
2022/01/22 06:43:34;;;;;;;23.75;10.65;;;0.30;99.90;;;;;;2094174;28;20222;-70